Time;durP1;ratioP1;P1;durP2;ratioP2;P2;SDS_P1;SDS_P2;PMS_P1;PMS_P2;Temp;Humidity;BMP_temperature;BMP_pressure;BME280_temperature;BME280_humidity;BME280_pressure;Samples;Min_cycle;Max_cycle;Signal;HPM_P1;HPM_P2
2021/11/10 00:02:06;;;;;;;6.85;2.80;;;2.60;99.90;;;;;;5089080;28;20052;-89
2021/11/10 00:04:33;;;;;;;6.63;2.75;;;2.60;99.90;;;;;;5091885;28;20478;-89
2021/11/10 00:06:59;;;;;;;6.43;2.85;;;2.60;99.90;;;;;;5107654;28;20105;-87
2021/11/10 00:09:25;;;;;;;8.48;3.10;;;2.60;99.90;;;;;;5089136;28;20039;-89
2021/11/10 00:11:51;;;;;;;7.57;2.90;;;2.60;99.90;;;;;;5089088;28;20077;-89
2021/11/10 00:14:17;;;;;;;7.30;3.47;;;2.60;99.90;;;;;;5088941;28;20040;-89
2021/11/10 00:16:43;;;;;;;8.00;3.00;;;2.60;99.90;;;;;;5105494;28;20032;-89
2021/11/10 00:19:08;;;;;;;13.30;3.33;;;2.60;99.90;;;;;;5105907;28;20031;-89
2021/11/10 00:21:34;;;;;;;7.35;3.10;;;2.60;99.90;;;;;;5088963;28;20087;-89
2021/11/10 00:24:01;;;;;;;6.40;2.53;;;2.50;99.90;;;;;;5088452;28;20044;-89
2021/11/10 00:26:27;;;;;;;6.78;2.50;;;2.50;99.90;;;;;;5106741;28;20032;-89
2021/11/10 00:28:54;;;;;;;5.80;2.35;;;2.40;99.90;;;;;;5088585;28;20040;-89
2021/11/10 00:31:20;;;;;;;6.47;2.75;;;2.40;99.90;;;;;;5105628;28;20032;-89
2021/11/10 00:33:46;;;;;;;6.30;2.95;;;2.40;99.90;;;;;;5088678;28;20051;-89
2021/11/10 00:36:14;;;;;;;6.75;2.58;;;2.40;99.90;;;;;;5088785;28;20031;-89
2021/11/10 00:38:40;;;;;;;5.68;2.58;;;2.30;99.90;;;;;;5088751;28;20039;-88
2021/11/10 00:41:06;;;;;;;6.97;3.42;;;2.30;99.90;;;;;;5088771;28;20049;-89
2021/11/10 00:43:32;;;;;;;6.47;2.35;;;2.40;99.90;;;;;;5105542;28;20080;-89
2021/11/10 00:45:58;;;;;;;8.45;2.90;;;2.50;99.90;;;;;;5105250;28;20051;-88
2021/11/10 00:48:24;;;;;;;7.18;3.75;;;2.40;99.90;;;;;;5075569;22;20115;-88
2021/11/10 00:50:50;;;;;;;7.97;3.40;;;2.40;99.90;;;;;;5080545;28;20048;-88
2021/11/10 00:53:16;;;;;;;8.27;2.80;;;2.30;99.90;;;;;;5085376;28;20056;-88
2021/11/10 00:55:41;;;;;;;6.30;3.35;;;2.20;99.90;;;;;;5068429;28;20036;-89
2021/11/10 00:58:08;;;;;;;6.40;2.85;;;2.20;99.90;;;;;;5085417;28;20028;-89
2021/11/10 01:00:35;;;;;;;8.25;3.08;;;2.10;99.90;;;;;;5085349;28;20025;-89
2021/11/10 01:03:01;;;;;;;6.65;2.58;;;2.10;99.90;;;;;;5068696;28;20031;-89
2021/11/10 01:05:28;;;;;;;6.40;2.70;;;2.10;99.90;;;;;;5074877;28;20032;-87
2021/11/10 01:07:56;;;;;;;6.30;2.95;;;2.10;99.90;;;;;;5065167;28;20514;-88
2021/11/10 01:10:24;;;;;;;6.85;2.78;;;2.20;99.90;;;;;;5065152;28;20116;-88
2021/11/10 01:12:50;;;;;;;10.32;3.15;;;2.10;99.90;;;;;;5065202;28;20033;-87
2021/11/10 01:15:18;;;;;;;7.20;3.15;;;2.10;99.90;;;;;;5064857;28;20043;-89
2021/11/10 01:17:44;;;;;;;9.02;3.35;;;2.00;99.90;;;;;;5065304;28;20025;-89
2021/11/10 01:20:12;;;;;;;9.95;3.17;;;2.00;99.90;;;;;;5065063;28;20033;-88
2021/11/10 01:22:38;;;;;;;8.02;3.13;;;2.00;99.90;;;;;;5064884;28;20067;-88
2021/11/10 01:25:06;;;;;;;5.40;2.35;;;2.00;99.90;;;;;;5048017;28;20051;-89
2021/11/10 01:27:32;;;;;;;7.72;2.97;;;2.00;99.90;;;;;;5064762;28;20061;-89
2021/11/10 01:29:58;;;;;;;6.57;2.58;;;2.00;99.90;;;;;;5064964;28;20033;-89
2021/11/10 01:32:24;;;;;;;6.03;3.25;;;1.90;99.90;;;;;;5064865;28;20025;-88
2021/11/10 01:34:51;;;;;;;5.70;3.08;;;1.80;99.90;;;;;;5064391;28;20041;-88
2021/11/10 01:37:18;;;;;;;6.57;2.42;;;1.90;99.90;;;;;;5064699;28;20047;-87
2021/11/10 01:39:45;;;;;;;5.97;2.80;;;1.90;99.90;;;;;;5064547;28;20174;-88
2021/11/10 01:42:16;;;;;;;5.07;2.20;;;2.00;99.90;;;;;;5064533;28;20112;-88
2021/11/10 01:44:47;;;;;;;7.03;2.97;;;1.90;99.90;;;;;;5064569;28;20052;-89
2021/11/10 01:47:13;;;;;;;9.20;3.40;;;2.00;99.90;;;;;;5067339;28;20078;-89
2021/11/10 01:49:42;;;;;;;5.80;2.60;;;2.10;99.90;;;;;;5084214;28;20037;-90
2021/11/10 01:52:09;;;;;;;7.82;2.80;;;2.00;99.90;;;;;;5085542;28;20025;-89
2021/11/10 01:54:38;;;;;;;8.52;2.83;;;2.00;99.90;;;;;;5084520;28;20416;-89
2021/11/10 01:57:07;;;;;;;7.32;2.83;;;2.10;99.90;;;;;;5101269;28;20039;-89
2021/11/10 01:59:43;;;;;;;6.63;2.90;;;2.10;99.90;;;;;;5067946;28;20032;-89
2021/11/10 02:02:19;;;;;;;6.00;2.60;;;1.90;99.90;;;;;;5071701;28;20048;-90
2021/11/10 02:04:47;;;;;;;8.30;3.13;;;2.00;99.90;;;;;;5083293;28;20024;-90
2021/11/10 02:07:13;;;;;;;8.75;2.95;;;2.00;99.90;;;;;;5068156;28;20040;-90
2021/11/10 02:09:41;;;;;;;5.22;3.53;;;2.10;99.90;;;;;;5068298;28;20100;-91
2021/11/10 02:12:08;;;;;;;4.97;2.75;;;2.20;99.90;;;;;;5051353;28;20025;-90
2021/11/10 02:14:40;;;;;;;6.60;2.85;;;2.10;99.90;;;;;;5052307;28;20045;-91
2021/11/10 02:17:11;;;;;;;7.05;3.08;;;2.00;99.90;;;;;;5067551;28;20025;-90
2021/11/10 02:19:36;;;;;;;5.68;3.15;;;1.90;99.90;;;;;;5084425;28;20100;-91
2021/11/10 02:22:14;;;;;;;6.72;3.22;;;2.00;99.90;;;;;;5067996;28;20171;-90
2021/11/10 02:24:42;;;;;;;7.35;3.20;;;2.00;99.90;;;;;;5051139;28;20033;-90
2021/11/10 02:27:15;;;;;;;6.78;2.67;;;1.90;99.90;;;;;;5051035;28;20032;-90
2021/11/10 02:29:42;;;;;;;7.97;2.72;;;2.10;99.90;;;;;;5051301;28;20036;-90
2021/11/10 02:32:11;;;;;;;8.38;2.75;;;2.00;99.90;;;;;;5050811;28;20036;-90
2021/11/10 02:34:42;;;;;;;7.13;3.25;;;2.00;99.90;;;;;;5067604;28;20044;-91
2021/11/10 02:37:08;;;;;;;8.38;2.70;;;1.80;99.90;;;;;;5067586;28;20036;-91
2021/11/10 02:39:36;;;;;;;8.23;2.80;;;1.90;99.90;;;;;;5069020;28;20029;-90
2021/11/10 02:42:04;;;;;;;5.57;2.80;;;1.90;99.90;;;;;;5067487;28;20087;-90
2021/11/10 02:44:29;;;;;;;7.20;3.30;;;1.90;99.90;;;;;;5067419;28;20037;-89
2021/11/10 02:46:55;;;;;;;6.93;3.20;;;1.80;99.90;;;;;;5068225;28;20088;-90
2021/11/10 02:49:23;;;;;;;8.90;3.70;;;1.90;99.90;;;;;;5067077;28;20071;-90
2021/11/10 02:52:10;;;;;;;9.02;4.20;;;2.00;99.90;;;;;;5050564;28;20059;-91
2021/11/10 02:54:43;;;;;;;6.80;3.05;;;2.10;99.90;;;;;;5067137;28;20048;-90
2021/11/10 02:57:09;;;;;;;7.95;3.83;;;2.10;99.90;;;;;;5067341;28;20039;-91
2021/11/10 02:59:35;;;;;;;8.02;3.72;;;2.10;99.90;;;;;;5067288;28;20029;-91
2021/11/10 03:02:05;;;;;;;8.07;3.75;;;2.10;99.90;;;;;;5067110;28;20040;-91
2021/11/10 03:04:50;;;;;;;8.50;4.00;;;2.20;99.90;;;;;;5066822;28;20550;-91
2021/11/10 03:07:17;;;;;;;6.90;3.47;;;2.20;99.90;;;;;;5067006;28;20036;-91
2021/11/10 03:09:45;;;;;;;7.72;3.80;;;2.10;99.90;;;;;;5067083;28;20464;-91
2021/11/10 03:12:18;;;;;;;8.52;3.55;;;2.00;99.90;;;;;;5066566;28;20033;-90
2021/11/10 03:14:46;;;;;;;8.27;3.17;;;2.10;99.90;;;;;;5075905;28;20048;-90
2021/11/10 03:17:17;;;;;;;9.18;3.75;;;2.00;99.90;;;;;;5083393;28;20119;-91
2021/11/10 03:19:43;;;;;;;7.00;3.63;;;1.90;99.90;;;;;;5066731;28;20198;-91
2021/11/10 03:22:11;;;;;;;7.97;3.05;;;1.90;99.90;;;;;;5066554;28;20232;-90
2021/11/10 03:24:41;;;;;;;8.00;3.35;;;2.00;99.90;;;;;;5083310;28;20040;-91
2021/11/10 03:27:07;;;;;;;6.95;3.22;;;1.90;99.90;;;;;;5050204;28;20049;-91
2021/11/10 03:29:34;;;;;;;10.07;3.15;;;1.80;99.90;;;;;;5066712;28;20028;-91
2021/11/10 03:32:03;;;;;;;7.82;3.97;;;1.90;99.90;;;;;;5066542;28;20029;-91
2021/11/10 03:34:28;;;;;;;7.07;3.00;;;1.90;99.90;;;;;;5083095;28;20075;-91
2021/11/10 03:36:54;;;;;;;6.65;4.28;;;2.10;99.90;;;;;;5082953;28;20029;-90
2021/11/10 03:39:20;;;;;;;6.72;3.72;;;2.00;99.90;;;;;;5066619;28;20033;-91
2021/11/10 03:41:46;;;;;;;8.43;4.00;;;2.00;99.90;;;;;;5082880;28;20051;-91
2021/11/10 03:44:12;;;;;;;9.52;4.60;;;2.00;99.90;;;;;;5081385;28;20040;-91
2021/11/10 03:46:42;;;;;;;7.90;3.50;;;1.90;99.90;;;;;;5086076;28;20088;-91
2021/11/10 03:49:10;;;;;;;6.28;3.45;;;1.80;99.90;;;;;;5085951;28;20048;-90
2021/11/10 03:51:37;;;;;;;8.73;3.03;;;1.80;99.90;;;;;;5085883;28;20031;-90
2021/11/10 03:54:03;;;;;;;7.78;4.53;;;1.70;99.90;;;;;;5069513;28;20044;-90
2021/11/10 03:56:32;;;;;;;6.70;4.13;;;2.00;99.90;;;;;;5069681;28;20029;-90
2021/11/10 03:58:57;;;;;;;9.68;3.25;;;1.90;99.90;;;;;;5102940;28;20070;-91
2021/11/10 04:01:24;;;;;;;9.00;4.30;;;1.90;99.90;;;;;;5069179;28;20028;-91
2021/11/10 04:03:51;;;;;;;7.70;3.38;;;1.80;99.90;;;;;;5085891;28;20032;-91
2021/11/10 04:06:17;;;;;;;6.75;3.33;;;1.70;99.90;;;;;;5068661;28;20036;-90
2021/11/10 04:08:44;;;;;;;8.80;4.15;;;1.80;99.90;;;;;;5065788;28;20041;-90
2021/11/10 04:11:11;;;;;;;7.85;4.18;;;1.80;99.90;;;;;;5074192;28;20043;-90
2021/11/10 04:13:38;;;;;;;7.88;4.00;;;1.90;99.90;;;;;;5101112;28;20039;-91
2021/11/10 04:16:05;;;;;;;8.23;3.67;;;1.80;99.90;;;;;;5082051;28;20053;-91
2021/11/10 04:18:35;;;;;;;8.40;3.83;;;1.80;99.90;;;;;;5065558;28;20034;-90
2021/11/10 04:21:10;;;;;;;7.22;3.55;;;1.80;99.90;;;;;;5065693;28;20420;-89
2021/11/10 04:23:36;;;;;;;8.70;3.53;;;1.80;99.90;;;;;;5064997;28;20052;-90
2021/11/10 04:26:04;;;;;;;7.82;3.47;;;1.80;99.90;;;;;;5081916;28;20077;-90
2021/11/10 04:28:32;;;;;;;8.55;3.90;;;1.90;99.90;;;;;;5065253;28;20044;-91
2021/11/10 04:30:59;;;;;;;9.20;4.78;;;1.90;99.90;;;;;;5081767;28;20033;-90
2021/11/10 04:33:25;;;;;;;7.38;3.75;;;2.00;99.90;;;;;;5065472;28;20029;-91
2021/11/10 04:35:52;;;;;;;9.15;4.43;;;1.80;99.90;;;;;;5081592;28;20029;-91
2021/11/10 04:38:18;;;;;;;10.85;4.28;;;1.80;99.90;;;;;;5081643;28;20373;-91
2021/11/10 04:40:45;;;;;;;8.63;4.05;;;1.80;99.90;;;;;;5066118;28;20035;-91
2021/11/10 04:43:11;;;;;;;7.72;4.20;;;1.90;99.90;;;;;;5048494;28;20025;-91
2021/11/10 04:48:36;;;;;;;8.30;3.70;;;1.80;99.90;;;;;;5004317;28;20050;-91
2021/11/10 04:51:04;;;;;;;8.35;3.67;;;1.90;99.90;;;;;;5004538;28;20046;-91
2021/11/10 04:53:30;;;;;;;10.10;5.07;;;1.80;99.90;;;;;;5004466;28;20050;-91
2021/11/10 04:55:56;;;;;;;7.72;3.88;;;1.70;99.90;;;;;;5004516;28;20037;-91
2021/11/10 04:58:23;;;;;;;7.82;3.50;;;1.70;99.90;;;;;;5004478;28;20085;-90
2021/11/10 05:00:48;;;;;;;9.95;4.53;;;1.80;99.90;;;;;;5004496;28;20038;-91
2021/11/10 05:03:14;;;;;;;7.15;3.70;;;1.80;99.90;;;;;;5004401;28;20041;-91
2021/11/10 05:05:40;;;;;;;10.23;3.75;;;1.80;99.90;;;;;;5004185;28;20038;-90
2021/11/10 05:08:06;;;;;;;10.38;4.15;;;1.90;99.90;;;;;;4971956;28;20461;-90
2021/11/10 05:10:33;;;;;;;9.73;4.00;;;1.90;99.90;;;;;;4991744;28;20029;-89
2021/11/10 05:13:02;;;;;;;6.90;3.00;;;1.90;99.90;;;;;;4991831;28;20034;-90
2021/11/10 05:15:28;;;;;;;10.77;4.20;;;1.90;99.90;;;;;;4990894;28;20048;-89
2021/11/10 05:17:54;;;;;;;9.60;4.28;;;2.00;99.90;;;;;;5023789;28;20089;-89
2021/11/10 05:20:23;;;;;;;10.57;4.38;;;2.00;99.90;;;;;;5023718;28;20041;-90
2021/11/10 05:22:49;;;;;;;11.65;4.47;;;2.10;99.90;;;;;;5023823;28;20064;-91
2021/11/10 05:25:15;;;;;;;8.88;4.40;;;2.10;99.90;;;;;;5035397;28;20029;-90
2021/11/10 05:27:41;;;;;;;8.55;3.35;;;2.00;99.90;;;;;;5061316;28;20413;-90
2021/11/10 05:30:08;;;;;;;11.13;4.72;;;1.90;99.90;;;;;;5044608;28;20029;-89
2021/11/10 05:32:34;;;;;;;9.23;4.13;;;1.90;99.90;;;;;;5061173;28;20029;-89
2021/11/10 05:35:00;;;;;;;7.40;3.60;;;2.00;99.90;;;;;;5045058;28;20059;-90
2021/11/10 05:37:27;;;;;;;8.80;4.07;;;2.10;99.90;;;;;;5065373;28;20025;-90
2021/11/10 05:39:53;;;;;;;11.43;3.97;;;2.10;99.90;;;;;;5064930;28;20040;-90
2021/11/10 05:42:19;;;;;;;9.00;4.32;;;2.10;99.90;;;;;;5068306;28;20469;-91
2021/11/10 05:44:45;;;;;;;9.05;3.90;;;2.10;99.90;;;;;;5068196;28;20037;-91
2021/11/10 05:47:11;;;;;;;7.70;3.83;;;2.10;99.90;;;;;;5081267;23;20054;-90
2021/11/10 05:49:37;;;;;;;7.32;3.95;;;2.20;99.90;;;;;;5072361;28;20051;-89
2021/11/10 05:52:04;;;;;;;8.68;3.75;;;2.10;99.90;;;;;;5072114;28;20028;-89
2021/11/10 05:54:30;;;;;;;8.45;4.55;;;2.00;99.90;;;;;;5071720;28;20045;-90
2021/11/10 05:56:55;;;;;;;10.80;4.40;;;2.00;99.90;;;;;;5088713;28;20062;-89
2021/11/10 05:59:22;;;;;;;10.50;3.70;;;2.10;99.90;;;;;;5105668;28;20032;-95
2021/11/10 06:01:48;;;;;;;9.27;3.20;;;2.10;99.90;;;;;;5071859;28;20025;-95
2021/11/10 06:04:14;;;;;;;9.60;4.15;;;2.10;99.90;;;;;;5067148;28;20104;-96
2021/11/10 06:06:41;;;;;;;11.07;4.38;;;2.00;99.90;;;;;;5108322;28;20032;-95
2021/11/10 06:09:07;;;;;;;7.47;3.38;;;2.00;99.90;;;;;;5091774;28;20032;-96
2021/11/10 06:11:33;;;;;;;7.45;3.80;;;1.90;99.90;;;;;;5092704;28;20552;-94
2021/11/10 06:13:58;;;;;;;7.35;3.97;;;1.90;99.90;;;;;;5104100;28;20052;-94
2021/11/10 06:16:26;;;;;;;8.38;3.58;;;1.90;99.90;;;;;;5088175;28;20036;-93
2021/11/10 06:18:51;;;;;;;12.68;4.22;;;1.80;99.90;;;;;;5087476;28;20135;-92
2021/11/10 06:21:17;;;;;;;11.18;4.07;;;1.70;99.90;;;;;;5071180;28;20039;-95
2021/11/10 06:23:43;;;;;;;6.85;3.85;;;1.70;99.90;;;;;;5087874;28;20036;-92
2021/11/10 06:26:08;;;;;;;7.68;3.72;;;1.70;99.90;;;;;;5087824;28;20029;-95
2021/11/10 06:28:35;;;;;;;7.10;4.07;;;1.70;99.90;;;;;;5087825;28;20035;-94
2021/11/10 06:34:30;;;;;;;8.82;3.42;;;1.60;99.90;;;;;;5083239;28;20465;-95
2021/11/10 06:36:56;;;;;;;7.60;3.47;;;1.70;99.90;;;;;;5097346;28;20046;-94
2021/11/10 06:39:21;;;;;;;7.25;3.58;;;1.60;99.90;;;;;;5107573;28;20032;-94
2021/11/10 06:41:47;;;;;;;6.78;3.15;;;1.60;99.90;;;;;;5091035;28;20035;-95
2021/11/10 06:44:13;;;;;;;9.15;3.88;;;1.50;99.90;;;;;;5090587;28;20044;-94
2021/11/10 06:46:39;;;;;;;8.23;3.78;;;1.60;99.90;;;;;;5082719;28;20024;-95
2021/11/10 06:49:04;;;;;;;9.45;3.55;;;1.70;99.90;;;;;;5087450;28;20036;-94
2021/11/10 06:51:31;;;;;;;6.95;3.80;;;1.70;99.90;;;;;;5084160;28;20473;-95
2021/11/10 06:53:57;;;;;;;9.57;4.78;;;1.70;99.90;;;;;;5067485;28;20068;-95
2021/11/10 06:56:23;;;;;;;6.75;3.15;;;1.60;99.90;;;;;;5087674;28;20055;-94
2021/11/10 06:58:49;;;;;;;8.25;3.70;;;1.70;99.90;;;;;;5103353;28;20032;-95
2021/11/10 07:01:16;;;;;;;9.05;3.97;;;1.80;99.90;;;;;;5104011;28;20029;-94
2021/11/10 07:03:41;;;;;;;6.40;3.10;;;1.70;99.90;;;;;;5104689;28;20108;-96
2021/11/10 07:06:07;;;;;;;9.50;3.92;;;1.70;99.90;;;;;;5049041;28;20516;-96
2021/11/10 07:08:34;;;;;;;7.95;4.03;;;1.70;99.90;;;;;;5089591;28;20024;-96
2021/11/10 07:11:00;;;;;;;6.57;3.58;;;1.70;99.90;;;;;;5074293;28;20032;-95
2021/11/10 07:13:27;;;;;;;10.00;4.03;;;1.80;99.90;;;;;;5088538;28;20032;-95
2021/11/10 07:15:54;;;;;;;11.43;3.95;;;2.00;99.90;;;;;;5090249;28;20061;-96
2021/11/10 07:18:23;;;;;;;6.90;3.78;;;1.80;99.90;;;;;;5056239;28;20041;-96
2021/11/10 07:20:51;;;;;;;10.20;4.00;;;1.70;99.90;;;;;;5070554;28;20409;-96
2021/11/10 07:23:17;;;;;;;8.32;4.03;;;1.70;99.90;;;;;;5071295;28;20032;-95
2021/11/10 07:25:45;;;;;;;9.40;3.67;;;1.80;99.90;;;;;;5055658;28;20343;-96
2021/11/10 07:28:14;;;;;;;6.63;3.38;;;1.80;99.90;;;;;;5087688;28;20080;-95
2021/11/10 07:30:40;;;;;;;9.43;3.58;;;1.80;99.90;;;;;;5089122;28;20029;-95
2021/11/10 07:33:08;;;;;;;9.25;4.07;;;1.90;99.90;;;;;;5086492;28;20032;-96
2021/11/10 07:35:35;;;;;;;6.97;3.72;;;1.90;99.90;;;;;;5071760;28;20044;-96
2021/11/10 07:38:03;;;;;;;8.60;3.95;;;2.00;99.90;;;;;;5072776;28;20084;-95
2021/11/10 07:40:29;;;;;;;7.10;3.33;;;2.20;99.90;;;;;;5071522;28;20043;-96
2021/11/10 07:43:01;;;;;;;12.52;4.63;;;2.20;99.90;;;;;;5089690;28;20032;-96
2021/11/10 07:45:35;;;;;;;10.57;3.75;;;2.20;99.90;;;;;;5074676;28;20044;-95
2021/11/10 07:48:12;;;;;;;10.32;4.18;;;2.40;99.90;;;;;;5073096;28;20072;-96
2021/11/10 07:50:42;;;;;;;10.30;3.88;;;2.40;99.90;;;;;;5089990;28;20046;-96
2021/11/10 07:53:08;;;;;;;10.05;4.60;;;2.50;99.90;;;;;;5070508;28;20051;-96
2021/11/10 07:55:34;;;;;;;12.50;4.20;;;2.50;99.90;;;;;;5071599;28;20037;-96
2021/11/10 07:58:00;;;;;;;8.05;4.30;;;2.40;99.90;;;;;;5070419;28;20031;-96
2021/11/10 08:00:26;;;;;;;11.57;4.40;;;2.50;99.90;;;;;;5071321;28;20035;-96
2021/11/10 08:02:52;;;;;;;13.85;4.30;;;2.60;99.90;;;;;;5082390;28;20030;-95
2021/11/10 08:05:19;;;;;;;10.95;4.53;;;2.60;99.90;;;;;;5089602;28;20028;-95
2021/11/10 08:07:44;;;;;;;11.60;4.40;;;2.60;99.90;;;;;;5074020;28;20037;-96
2021/11/10 08:10:12;;;;;;;14.50;5.28;;;2.80;99.90;;;;;;5070547;28;20050;-96
2021/11/10 08:12:38;;;;;;;10.23;4.68;;;2.90;99.90;;;;;;5070401;28;20036;-96
2021/11/10 08:15:10;;;;;;;9.98;4.72;;;3.00;99.90;;;;;;5066548;28;20045;-95
2021/11/10 08:17:36;;;;;;;8.57;4.70;;;3.10;99.90;;;;;;5082331;28;20035;-93
2021/11/10 08:20:11;;;;;;;11.43;5.32;;;3.20;99.90;;;;;;5082975;28;20075;-95
2021/11/10 08:22:37;;;;;;;13.18;5.18;;;3.40;99.90;;;;;;5082765;28;20029;-95
2021/11/10 08:25:05;;;;;;;10.98;5.60;;;3.50;99.90;;;;;;5081869;28;20056;-95
2021/11/10 08:27:31;;;;;;;11.30;6.68;;;3.60;99.90;;;;;;5082068;28;20025;-95
2021/11/10 08:29:57;;;;;;;13.05;7.63;;;3.70;99.90;;;;;;5065699;28;20029;-95
2021/11/10 08:32:23;;;;;;;14.23;7.32;;;3.90;99.90;;;;;;5095199;28;20070;-96
2021/11/10 08:34:49;;;;;;;15.18;7.68;;;4.00;99.90;;;;;;5090195;28;20051;-96
2021/11/10 08:37:16;;;;;;;12.32;7.80;;;4.00;99.90;;;;;;5106978;28;20020;-96
2021/11/10 08:39:41;;;;;;;15.68;7.07;;;4.20;99.90;;;;;;5091168;28;20043;-95
2021/11/10 08:42:09;;;;;;;16.00;9.35;;;4.40;99.90;;;;;;5091788;28;20115;-96
2021/11/10 08:44:41;;;;;;;16.65;9.52;;;4.50;99.90;;;;;;5092961;28;20091;-95
2021/11/10 08:47:07;;;;;;;15.88;8.38;;;4.50;99.90;;;;;;5092184;28;20181;-94
2021/11/10 08:49:34;;;;;;;20.98;9.73;;;4.70;99.90;;;;;;5090731;28;20028;-95
2021/11/10 08:52:04;;;;;;;13.55;8.55;;;4.70;99.90;;;;;;5110155;28;20035;-95
2021/11/10 08:54:30;;;;;;;16.65;8.55;;;4.90;99.90;;;;;;5089389;28;20080;-95
2021/11/10 08:57:00;;;;;;;14.65;9.60;;;5.00;99.90;;;;;;5089234;28;20031;-95
2021/11/10 08:59:26;;;;;;;14.95;8.45;;;5.10;99.90;;;;;;5092198;28;20032;-95
2021/11/10 09:01:54;;;;;;;16.67;9.30;;;5.20;99.90;;;;;;5091161;28;20048;-94
2021/11/10 09:04:21;;;;;;;12.82;8.23;;;5.30;99.90;;;;;;5090422;28;20028;-94
2021/11/10 09:06:48;;;;;;;19.05;9.30;;;5.40;99.90;;;;;;5088147;28;20032;-94
2021/11/10 09:09:15;;;;;;;12.82;8.13;;;5.50;99.90;;;;;;5087808;28;20062;-94
2021/11/10 09:11:42;;;;;;;13.75;7.43;;;5.60;99.90;;;;;;5087694;28;20072;-94
2021/11/10 09:14:08;;;;;;;15.32;7.97;;;5.70;99.90;;;;;;5077022;28;20112;-93
2021/11/10 09:16:34;;;;;;;12.25;6.78;;;5.70;99.90;;;;;;5081044;28;20043;-95
2021/11/10 09:19:00;;;;;;;15.57;7.22;;;5.80;99.90;;;;;;5081035;28;20025;-92
2021/11/10 09:21:28;;;;;;;11.65;7.35;;;6.00;99.90;;;;;;5080846;28;20044;-92
2021/11/10 09:23:53;;;;;;;14.10;7.32;;;6.10;99.90;;;;;;5080943;28;20044;-93
2021/11/10 09:26:19;;;;;;;15.10;8.13;;;6.10;99.90;;;;;;5063956;28;20033;-93
2021/11/10 09:28:45;;;;;;;15.82;8.43;;;6.30;99.90;;;;;;5080978;28;20033;-93
2021/11/10 09:31:10;;;;;;;16.98;8.45;;;6.40;99.90;;;;;;5101199;28;20086;-92
2021/11/10 09:33:40;;;;;;;16.90;8.60;;;6.40;99.90;;;;;;5087665;28;20127;-94
2021/11/10 09:36:06;;;;;;;14.23;7.47;;;6.50;99.90;;;;;;5088135;28;20046;-93
2021/11/10 09:38:33;;;;;;;15.35;7.22;;;6.60;99.90;;;;;;5087624;28;20036;-94
2021/11/10 09:41:00;;;;;;;12.75;6.75;;;6.80;99.90;;;;;;5087657;28;20118;-93
2021/11/10 09:43:31;;;;;;;11.63;5.53;;;6.90;99.90;;;;;;5087523;28;20056;-94
2021/11/10 09:45:57;;;;;;;18.67;8.40;;;6.90;99.90;;;;;;5087512;28;20103;-93
2021/11/10 09:48:25;;;;;;;12.77;6.95;;;6.90;99.90;;;;;;5087637;28;20058;-95
2021/11/10 09:50:50;;;;;;;11.00;5.68;;;7.00;99.90;;;;;;5087730;28;20033;-94
2021/11/10 09:53:17;;;;;;;11.98;6.80;;;7.20;99.90;;;;;;5087135;28;20126;-95
2021/11/10 09:55:43;;;;;;;19.98;11.13;;;7.40;99.90;;;;;;5087517;28;20036;-94
2021/11/10 09:58:10;;;;;;;15.23;8.10;;;7.30;99.90;;;;;;5093452;28;20048;-94
2021/11/10 10:00:44;;;;;;;19.40;10.57;;;7.50;99.90;;;;;;5067458;28;20029;-95
2021/11/10 10:03:10;;;;;;;23.92;11.18;;;7.40;99.90;;;;;;5083963;28;20032;-96
2021/11/10 10:05:37;;;;;;;24.38;12.85;;;7.50;99.90;;;;;;5095394;28;20035;-96
2021/11/10 10:08:04;;;;;;;24.42;13.50;;;7.50;99.90;;;;;;5102423;28;20036;-96
2021/11/10 10:10:31;;;;;;;27.30;13.10;;;7.60;99.90;;;;;;5104492;28;20032;-95
2021/11/10 10:12:58;;;;;;;23.10;11.45;;;7.60;99.90;;;;;;5104187;28;20028;-96
2021/11/10 10:15:26;;;;;;;22.65;9.85;;;7.90;99.90;;;;;;5088651;28;20045;-95
2021/11/10 10:17:59;;;;;;;25.25;11.32;;;7.80;99.90;;;;;;5085244;28;20078;-95
2021/11/10 10:20:37;;;;;;;18.25;9.95;;;7.90;99.90;;;;;;5084794;28;20541;-95
2021/11/10 10:23:16;;;;;;;26.25;12.68;;;8.00;99.90;;;;;;5089535;28;20104;-96
2021/11/10 10:25:43;;;;;;;23.67;10.43;;;8.10;99.90;;;;;;5073118;28;20036;-95
2021/11/10 10:28:14;;;;;;;16.75;8.70;;;8.20;99.90;;;;;;5099381;28;20036;-95
2021/11/10 10:30:54;;;;;;;19.13;8.48;;;8.40;99.90;;;;;;5092223;28;20028;-95
2021/11/10 10:33:25;;;;;;;16.38;7.75;;;8.50;99.90;;;;;;5092199;28;20035;-95
2021/11/10 10:35:57;;;;;;;16.80;7.75;;;8.60;99.90;;;;;;5092512;28;20036;-95
2021/11/10 10:38:32;;;;;;;14.10;6.90;;;8.50;99.90;;;;;;5093842;28;20064;-96
2021/11/10 10:41:01;;;;;;;12.15;5.70;;;8.80;99.90;;;;;;5093004;28;20052;-95
2021/11/10 10:43:29;;;;;;;13.20;5.43;;;9.00;99.90;;;;;;5094185;28;20020;-95
2021/11/10 10:49:44;;;;;;;7.47;4.10;;;9.10;99.90;;;;;;5038942;28;20052;-96
2021/11/10 10:52:19;;;;;;;8.65;4.00;;;9.20;99.90;;;;;;5030944;28;20567;-94
2021/11/10 10:54:47;;;;;;;13.80;5.10;;;9.30;99.90;;;;;;5030638;28;20584;-94
2021/11/10 10:57:19;;;;;;;14.18;4.95;;;9.50;99.90;;;;;;5015114;28;20033;-95
2021/11/10 10:59:44;;;;;;;7.55;4.60;;;9.50;99.90;;;;;;5033221;28;20132;-96
2021/11/10 11:02:10;;;;;;;13.55;6.13;;;9.60;99.90;;;;;;5032132;28;20033;-96
2021/11/10 11:04:43;;;;;;;11.63;4.85;;;9.60;99.90;;;;;;5032334;28;20033;-95
2021/11/10 11:07:11;;;;;;;11.65;5.15;;;9.70;99.90;;;;;;5014654;28;20038;-94
2021/11/10 11:09:43;;;;;;;12.38;5.63;;;9.80;99.90;;;;;;5017672;28;20013;-95
2021/11/10 11:12:14;;;;;;;12.98;7.65;;;9.80;99.90;;;;;;5032300;28;20033;-95
2021/11/10 11:15:05;;;;;;;15.27;7.50;;;9.90;99.90;;;;;;5008303;28;20049;-95
2021/11/10 11:17:36;;;;;;;14.07;6.50;;;10.00;99.90;;;;;;5013418;28;20038;-92
2021/11/10 11:20:15;;;;;;;12.65;6.40;;;10.10;99.90;;;;;;5014599;28;20510;-96
2021/11/10 11:22:41;;;;;;;12.80;6.75;;;10.20;99.90;;;;;;5012856;28;20061;-94
2021/11/10 11:25:19;;;;;;;10.23;5.80;;;10.30;99.90;;;;;;5032870;28;20028;-94
2021/11/10 11:27:57;;;;;;;13.90;5.82;;;10.20;99.90;;;;;;5111811;28;20028;-95
2021/11/10 11:30:26;;;;;;;14.50;6.10;;;10.20;99.90;;;;;;5111509;28;20070;-95
2021/11/10 11:32:55;;;;;;;12.43;5.82;;;10.20;99.90;;;;;;5110759;28;20028;-95
2021/11/10 11:35:39;;;;;;;10.90;5.50;;;10.40;99.90;;;;;;5091489;28;20040;-95
2021/11/10 11:38:16;;;;;;;10.30;5.07;;;10.50;99.90;;;;;;5110482;28;20031;-95
2021/11/10 11:40:52;;;;;;;6.70;3.22;;;10.50;99.90;;;;;;5094111;28;20047;-96
2021/11/10 11:43:22;;;;;;;10.10;4.78;;;10.30;99.90;;;;;;5091086;28;20112;-95
2021/11/10 11:46:08;;;;;;;11.57;5.25;;;10.50;99.90;;;;;;5092295;28;20028;-94
2021/11/10 11:48:34;;;;;;;10.70;4.95;;;10.30;99.90;;;;;;5031248;28;20033;-95
2021/11/10 11:51:06;;;;;;;11.60;5.05;;;10.30;99.90;;;;;;5035112;28;20041;-95
2021/11/10 11:53:38;;;;;;;13.63;5.20;;;10.10;99.90;;;;;;5022763;28;20022;-94
2021/11/10 11:56:10;;;;;;;10.88;5.45;;;10.00;99.90;;;;;;5013402;28;20064;-94
2021/11/10 11:58:40;;;;;;;11.45;5.10;;;10.10;99.90;;;;;;5010382;28;20088;-96
2021/11/10 12:01:12;;;;;;;11.25;4.57;;;10.20;99.90;;;;;;5009683;28;20030;-95
2021/11/10 12:03:41;;;;;;;11.13;5.10;;;10.40;99.90;;;;;;5009534;28;20033;-94
2021/11/10 12:06:07;;;;;;;9.13;5.05;;;10.40;99.90;;;;;;5008454;28;20494;-96
2021/11/10 12:08:46;;;;;;;11.45;5.43;;;10.40;99.90;;;;;;5013937;28;20059;-94
2021/11/10 12:11:40;;;;;;;8.13;4.80;;;10.60;99.90;;;;;;5028339;28;20104;-95
2021/11/10 12:14:18;;;;;;;10.15;4.68;;;10.20;99.90;;;;;;5025100;28;20554;-95
2021/11/10 12:16:53;;;;;;;7.95;5.10;;;10.30;99.90;;;;;;5028376;28;20030;-96
2021/11/10 12:19:33;;;;;;;13.52;6.00;;;10.40;99.90;;;;;;5029400;28;20017;-96
2021/11/10 12:22:08;;;;;;;14.35;5.72;;;10.40;99.90;;;;;;5027636;28;20026;-96
2021/11/10 12:24:47;;;;;;;14.20;6.82;;;10.60;99.90;;;;;;5046403;28;20037;-93
2021/11/10 12:27:32;;;;;;;11.45;5.55;;;10.30;99.90;;;;;;5104822;28;20095;-95
2021/11/10 12:30:07;;;;;;;13.77;5.30;;;10.50;99.90;;;;;;5105808;28;20036;-94
2021/11/10 12:32:33;;;;;;;13.20;7.22;;;10.40;99.90;;;;;;5089595;28;20028;-94
2021/11/10 12:35:00;;;;;;;15.48;8.00;;;10.30;99.90;;;;;;5106610;28;20043;-94
2021/11/10 12:37:34;;;;;;;13.27;7.43;;;10.40;99.90;;;;;;5090419;28;20028;-96
2021/11/10 12:40:07;;;;;;;13.70;5.53;;;10.70;99.90;;;;;;5091008;28;20040;-96
2021/11/10 12:42:57;;;;;;;9.52;5.55;;;10.80;99.90;;;;;;5109431;28;20051;-95
2021/11/10 12:45:32;;;;;;;14.05;6.47;;;10.90;99.90;;;;;;5106044;28;20047;-96
2021/11/10 12:48:02;;;;;;;12.45;6.57;;;10.80;99.90;;;;;;5106665;28;20032;-95
2021/11/10 12:50:52;;;;;;;15.32;7.35;;;10.80;99.90;;;;;;5091434;28;20052;-95
2021/11/10 12:53:41;;;;;;;17.42;7.80;;;10.90;99.90;;;;;;5109770;28;20039;-96
2021/11/10 12:56:12;;;;;;;13.48;6.75;;;10.80;99.90;;;;;;5090077;28;20024;-96
2021/11/10 12:58:39;;;;;;;9.70;5.03;;;10.90;99.90;;;;;;5074226;28;20032;-93
2021/11/10 13:01:07;;;;;;;14.02;6.63;;;11.00;99.90;;;;;;5090548;28;20480;-96
2021/11/10 13:03:36;;;;;;;16.08;7.35;;;11.10;99.90;;;;;;5088973;28;20040;-94
2021/11/10 13:06:08;;;;;;;10.32;5.72;;;11.00;99.90;;;;;;5093496;28;20036;-95
2021/11/10 13:09:07;;;;;;;14.18;6.95;;;11.20;99.90;;;;;;5105285;28;20032;-96